LIPZ 200020Z 33002KT CAVOK 17/12 Q1026 NOSIG LIPZ 192350Z 02001KT CAVOK 18/11 Q1026 NOSIG LIPZ 192320Z VRB02KT CAVOK 18/11 Q1026 NOSIG LIPZ 192250Z VRB01KT CAVOK 17/12 Q1026 NOSIG LIPZ 192220Z 30003KT 240V350 CAVOK 19/11 Q1026 NOSIG LIPZ 192150Z 21005KT CAVOK 20/11 Q1026 NOSIG LIPZ 192120Z 19004KT CAVOK 20/10 Q1026 NOSIG LIPZ 192050Z 19005KT CAVOK 20/11 Q1026 NOSIG LIPZ 192020Z 19005KT CAVOK 20/11 Q1026 NOSIG LIPZ 191950Z 19005KT CAVOK 20/10 Q1026 NOSIG LIPZ 191920Z 18005KT CAVOK 21/10 Q1026 NOSIG LIPZ 191850Z 17004KT CAVOK 21/11 Q1025 NOSIG LIPZ 191820Z 18005KT CAVOK 21/10 Q1025 NOSIG LIPZ 191750Z 16006KT CAVOK 21/12 Q1025 NOSIG LIPZ 191720Z 16007KT CAVOK 22/12 Q1025 NOSIG LIPZ 191650Z 17006KT CAVOK 22/12 Q1025 NOSIG LIPZ 191620Z 16007KT 130V190 CAVOK 22/12 Q1025 NOSIG LIPZ 191550Z 16008KT CAVOK 22/14 Q1026 NOSIG LIPZ 191520Z 17006KT CAVOK 23/14 Q1026 NOSIG LIPZ 191450Z 16007KT CAVOK 23/12 Q1026 NOSIG LIPZ 191420Z 16006KT 130V190 CAVOK 23/12 Q1026 NOSIG LIPZ 191350Z 15008KT CAVOK 22/13 Q1026 NOSIG LIPZ 191320Z 15007KT 120V180 CAVOK 22/13 Q1026 NOSIG LIPZ 191250Z 15006KT 120V190 CAVOK 22/13 Q1027 NOSIG LIPZ 191220Z 15006KT CAVOK 23/13 Q1027 NOSIG LIPZ 191150Z 15005KT 120V190 CAVOK 23/12 Q1027 NOSIG LIPZ 191120Z 16005KT 130V200 CAVOK 23/13 Q1027 NOSIG LIPZ 191050Z 17004KT 120V220 CAVOK 23/12 Q1027 NOSIG LIPZ 191020Z 15004KT 120V200 CAVOK 22/10 Q1027 NOSIG LIPZ 190950Z 16004KT 130V200 CAVOK 22/11 Q1027 NOSIG LIPZ 190920Z 14004KT 100V190 CAVOK 22/10 Q1027 NOSIG LIPZ 190850Z 14004KT 090V180 CAVOK 22/09 Q1027 NOSIG LIPZ 190820Z 08005KT CAVOK 21/10 Q1027 NOSIG LIPZ 190750Z 07006KT CAVOK 20/08 Q1027 NOSIG LIPZ 190720Z 09007KT CAVOK 21/09 Q1027 NOSIG LIPZ 190650Z 06005KT 030V100 CAVOK 20/11 Q1027 NOSIG LIPZ 190620Z 05005KT 020V080 CAVOK 20/10 Q1027 NOSIG LIPZ 190550Z 05006KT CAVOK 20/11 Q1027 NOSIG LIPZ 190520Z 05007KT 9999 FEW070 19/10 Q1027 NOSIG LIPZ 190450Z 08009KT 9999 FEW070 20/10 Q1026 NOSIG LIPZ 190420Z 09009KT 9999 FEW060 20/09 Q1026 NOSIG LIPZ 190350Z 10010KT 9999 FEW070 20/08 Q1026 NOSIG LIPZ 190320Z 10008KT CAVOK 20/11 Q1026 NOSIG LIPZ 190250Z 05006KT CAVOK 16/11 Q1026 NOSIG LIPZ 190220Z 05008KT CAVOK 16/11 Q1026 NOSIG LIPZ 190150Z 02005KT CAVOK 17/11 Q1026 NOSIG LIPZ 190120Z 02004KT CAVOK 17/11 Q1026 NOSIG LIPZ 190050Z 03006KT CAVOK 18/11 Q1026 NOSIG LIPZ 190020Z 03005KT CAVOK 18/12 Q1026 NOSIG LIPZ 182350Z 04006KT CAVOK 19/14 Q1026 NOSIG LIPZ 182320Z 04005KT CAVOK 19/15 Q1025 NOSIG LIPZ 182250Z 04006KT CAVOK 19/15 Q1025 NOSIG LIPZ 182220Z 02003KT CAVOK 21/15 Q1025 NOSIG LIPZ 182150Z VRB01KT CAVOK 21/14 Q1025 NOSIG LIPZ 182120Z VRB01KT CAVOK 21/16 Q1025 NOSIG LIPZ 182050Z 24003KT CAVOK 21/15 Q1025 NOSIG LIPZ 182020Z 20004KT CAVOK 21/15 Q1024 NOSIG LIPZ 181950Z 18004KT CAVOK 22/15 Q1024 NOSIG LIPZ 181920Z 16004KT 130V200 CAVOK 22/16 Q1023 NOSIG LIPZ 181850Z 18003KT CAVOK 22/15 Q1023 NOSIG LIPZ 181820Z 20003KT CAVOK 22/15 Q1023 NOSIG LIPZ 181750Z 20005KT CAVOK 23/15 Q1023 NOSIG LIPZ 181720Z 18004KT CAVOK 23/16 Q1022 NOSIG LIPZ 181650Z 18003KT 140V220 CAVOK 24/13 Q1022 NOSIG LIPZ 181620Z 17004KT 140V200 CAVOK 25/10 Q1022 NOSIG LIPZ 181550Z 16004KT 120V190 CAVOK 24/12 Q1022 NOSIG LIPZ 181520Z 15005KT 120V180 CAVOK 24/09 Q1022 NOSIG LIPZ 181450Z 17004KT 130V200 CAVOK 25/11 Q1022 NOSIG LIPZ 181420Z 15005KT 120V190 CAVOK 24/12 Q1022 NOSIG LIPZ 181350Z 15005KT 130V200 CAVOK 24/12 Q1022 NOSIG LIPZ 181320Z 15005KT 120V190 CAVOK 24/13 Q1023 NOSIG LIPZ 181250Z 15005KT 120V190 CAVOK 24/11 Q1022 NOSIG

METAR Messwerte "VENEZIA/TESSERA" LIPZ

Zurück zur Übersicht

Ortsname
Ländercode / m ü. NN
Zeit Temperatur Taupunkt Rel.
Luftfeuchte
Luftdruck:
Altimeter
NN
Station
Wind in Beaufort
(Knoten)
Sichtweite
(Meter)
Wolken
(Meter über Grund)
Wettererscheinung
VENEZIA/TESSERA
IT 3
Fr 20.05. 02:20171272 %1026
1026
1026
NNW 1 (2)>= 10000Nicht signifikant 
VENEZIA/TESSERA
IT 3
Fr 20.05. 01:50181164 %1026
1026
1026
NNO 1 (1)>= 10000Nicht signifikant 
VENEZIA/TESSERA
IT 3
Fr 20.05. 01:20181164 %1026
1026
1026
Uml 1 (2)>= 10000Nicht signifikant 
VENEZIA/TESSERA
IT 3
Fr 20.05. 00:50171272 %1026
1026
1026
Uml 1 (1)>= 10000Nicht signifikant 
VENEZIA/TESSERA
IT 3
Fr 20.05. 00:20191160 %1026
1026
1026
WNW 2 (3)
WSW - N
>= 10000Nicht signifikant 
VENEZIA/TESSERA
IT 3
Do 19.05. 23:50201156 %1026
1026
1026
SSW 2 (5)>= 10000Nicht signifikant 
VENEZIA/TESSERA
IT 3
Do 19.05. 23:20201053 %1026
1026
1026
S 2 (4)>= 10000Nicht signifikant 
VENEZIA/TESSERA
IT 3
Do 19.05. 22:50201156 %1026
1026
1026
S 2 (5)>= 10000Nicht signifikant 
VENEZIA/TESSERA
IT 3
Do 19.05. 22:20201156 %1026
1026
1026
S 2 (5)>= 10000Nicht signifikant 
VENEZIA/TESSERA
IT 3
Do 19.05. 21:50201053 %1026
1026
1026
S 2 (5)>= 10000Nicht signifikant 
VENEZIA/TESSERA
IT 3
Do 19.05. 21:20211049 %1026
1026
1026
S 2 (5)>= 10000Nicht signifikant 
VENEZIA/TESSERA
IT 3
Do 19.05. 20:50211153 %1025
1025
1025
S 2 (4)>= 10000Nicht signifikant 
VENEZIA/TESSERA
IT 3
Do 19.05. 20:20211049 %1025
1025
1025
S 2 (5)>= 10000Nicht signifikant 
VENEZIA/TESSERA
IT 3
Do 19.05. 19:50211256 %1025
1025
1025
SSO 2 (6)>= 10000Nicht signifikant 
VENEZIA/TESSERA
IT 3
Do 19.05. 19:20221253 %1025
1025
1025
SSO 3 (7)>= 10000Nicht signifikant 
VENEZIA/TESSERA
IT 3
Do 19.05. 18:50221253 %1025
1025
1025
S 2 (6)>= 10000Nicht signifikant 
VENEZIA/TESSERA
IT 3
Do 19.05. 18:20221253 %1025
1025
1025
SSO 3 (7)
SO - S
>= 10000Nicht signifikant 
VENEZIA/TESSERA
IT 3
Do 19.05. 17:50221460 %1026
1026
1026
SSO 3 (8)>= 10000Nicht signifikant 
VENEZIA/TESSERA
IT 3
Do 19.05. 17:20231457 %1026
1026
1026
S 2 (6)>= 10000Nicht signifikant 
VENEZIA/TESSERA
IT 3
Do 19.05. 16:50231250 %1026
1026
1026
SSO 3 (7)>= 10000Nicht signifikant 
VENEZIA/TESSERA
IT 3
Do 19.05. 16:20231250 %1026
1026
1026
SSO 2 (6)
SO - S
>= 10000Nicht signifikant 
VENEZIA/TESSERA
IT 3
Do 19.05. 15:50221357 %1026
1026
1026
SSO 3 (8)>= 10000Nicht signifikant 
VENEZIA/TESSERA
IT 3
Do 19.05. 15:20221357 %1026
1026
1026
SSO 3 (7)
OSO - S
>= 10000Nicht signifikant 
VENEZIA/TESSERA
IT 3
Do 19.05. 14:50221357 %1027
1027
1027
SSO 2 (6)
OSO - S
>= 10000Nicht signifikant 
VENEZIA/TESSERA
IT 3
Do 19.05. 14:20231353 %1027
1027
1027
SSO 2 (6)>= 10000Nicht signifikant 
VENEZIA/TESSERA
IT 3
Do 19.05. 13:50231250 %1027
1027
1027
SSO 2 (5)
OSO - S
>= 10000Nicht signifikant 
VENEZIA/TESSERA
IT 3
Do 19.05. 13:20231353 %1027
1027
1027
SSO 2 (5)
SO - SSW
>= 10000Nicht signifikant 
VENEZIA/TESSERA
IT 3
Do 19.05. 12:50231250 %1027
1027
1027
S 2 (4)
OSO - SW
>= 10000Nicht signifikant 
VENEZIA/TESSERA
IT 3
Do 19.05. 12:20221046 %1027
1027
1027
SSO 2 (4)
OSO - SSW
>= 10000Nicht signifikant 
VENEZIA/TESSERA
IT 3
Do 19.05. 11:50221150 %1027
1027
1027
SSO 2 (4)
SO - SSW
>= 10000Nicht signifikant 
VENEZIA/TESSERA
IT 3
Do 19.05. 11:20221046 %1027
1027
1027
SO 2 (4)
O - S
>= 10000Nicht signifikant 
VENEZIA/TESSERA
IT 3
Do 19.05. 10:5022943 %1027
1027
1027
SO 2 (4)
O - S
>= 10000Nicht signifikant 
VENEZIA/TESSERA
IT 3
Do 19.05. 10:20211049 %1027
1027
1027
O 2 (5)>= 10000Nicht signifikant 
VENEZIA/TESSERA
IT 3
Do 19.05. 09:5020846 %1027
1027
1027
ONO 2 (6)>= 10000Nicht signifikant 
VENEZIA/TESSERA
IT 3
Do 19.05. 09:2021946 %1027
1027
1027
O 3 (7)>= 10000Nicht signifikant 
VENEZIA/TESSERA
IT 3
Do 19.05. 08:50201156 %1027
1027
1027
ONO 2 (5)
NNO - O
>= 10000Nicht signifikant 
VENEZIA/TESSERA
IT 3
Do 19.05. 08:20201053 %1027
1027
1027
NO 2 (5)
NNO - O
>= 10000Nicht signifikant 
VENEZIA/TESSERA
IT 3
Do 19.05. 07:50201156 %1027
1027
1027
NO 2 (6)>= 10000Nicht signifikant 
VENEZIA/TESSERA
IT 3
Do 19.05. 07:20191056 %1027
1027
1027
NO 3 (7)>= 10000Leicht bewölkt (2100) 
VENEZIA/TESSERA
IT 3
Do 19.05. 06:50201053 %1026
1026
1026
O 3 (9)>= 10000Leicht bewölkt (2100) 
VENEZIA/TESSERA
IT 3
Do 19.05. 06:2020949 %1026
1026
1026
O 3 (9)>= 10000Leicht bewölkt (1800) 
VENEZIA/TESSERA
IT 3
Do 19.05. 05:5020846 %1026
1026
1026
O 3 (10)>= 10000Leicht bewölkt (2100) 
VENEZIA/TESSERA
IT 3
Do 19.05. 05:20201156 %1026
1026
1026
O 3 (8)>= 10000Nicht signifikant 
VENEZIA/TESSERA
IT 3
Do 19.05. 04:50161172 %1026
1026
1026
NO 2 (6)>= 10000Nicht signifikant 
VENEZIA/TESSERA
IT 3
Do 19.05. 04:20161172 %1026
1026
1026
NO 3 (8)>= 10000Nicht signifikant 
VENEZIA/TESSERA
IT 3
Do 19.05. 03:50171168 %1026
1026
1026
NNO 2 (5)>= 10000Nicht signifikant 
VENEZIA/TESSERA
IT 3
Do 19.05. 03:20171168 %1026
1026
1026
NNO 2 (4)>= 10000Nicht signifikant 
VENEZIA/TESSERA
IT 3
Do 19.05. 02:50181164 %1026
1026
1026
NNO 2 (6)>= 10000Nicht signifikant 
VENEZIA/TESSERA
IT 3
Do 19.05. 02:20181268 %1026
1026
1026
NNO 2 (5)>= 10000Nicht signifikant 
VENEZIA/TESSERA
IT 3
Do 19.05. 01:50191473 %1026
1026
1026
NO 2 (6)>= 10000Nicht signifikant 
VENEZIA/TESSERA
IT 3
Do 19.05. 01:20191578 %1025
1025
1025
NO 2 (5)>= 10000Nicht signifikant 
VENEZIA/TESSERA
IT 3
Do 19.05. 00:50191578 %1025
1025
1025
NO 2 (6)>= 10000Nicht signifikant 
VENEZIA/TESSERA
IT 3
Do 19.05. 00:20211569 %1025
1025
1025
NNO 2 (3)>= 10000Nicht signifikant 
VENEZIA/TESSERA
IT 3
Mi 18.05. 23:50211464 %1025
1025
1025
Uml 1 (1)>= 10000Nicht signifikant 
VENEZIA/TESSERA
IT 3
Mi 18.05. 23:20211673 %1025
1025
1025
Uml 1 (1)>= 10000Nicht signifikant 
VENEZIA/TESSERA
IT 3
Mi 18.05. 22:50211569 %1025
1025
1025
WSW 2 (3)>= 10000Nicht signifikant 
VENEZIA/TESSERA
IT 3
Mi 18.05. 22:20211569 %1024
1024
1024
SSW 2 (4)>= 10000Nicht signifikant 
VENEZIA/TESSERA
IT 3
Mi 18.05. 21:50221565 %1024
1024
1024
S 2 (4)>= 10000Nicht signifikant 
VENEZIA/TESSERA
IT 3
Mi 18.05. 21:20221669 %1023
1023
1023
SSO 2 (4)
SO - SSW
>= 10000Nicht signifikant 
VENEZIA/TESSERA
IT 3
Mi 18.05. 20:50221565 %1023
1023
1023
S 2 (3)>= 10000Nicht signifikant 
VENEZIA/TESSERA
IT 3
Mi 18.05. 20:20221565 %1023
1023
1023
SSW 2 (3)>= 10000Nicht signifikant 
VENEZIA/TESSERA
IT 3
Mi 18.05. 19:50231561 %1023
1023
1023
SSW 2 (5)>= 10000Nicht signifikant 
VENEZIA/TESSERA
IT 3
Mi 18.05. 19:20231665 %1022
1022
1022
S 2 (4)>= 10000Nicht signifikant 
VENEZIA/TESSERA
IT 3
Mi 18.05. 18:50241350 %1022
1022
1022
S 2 (3)
SO - SW
>= 10000Nicht signifikant 
VENEZIA/TESSERA
IT 3
Mi 18.05. 18:20251039 %1022
1022
1022
S 2 (4)
SO - SSW
>= 10000Nicht signifikant 
VENEZIA/TESSERA
IT 3
Mi 18.05. 17:50241247 %1022
1022
1022
SSO 2 (4)
OSO - S
>= 10000Nicht signifikant 
VENEZIA/TESSERA
IT 3
Mi 18.05. 17:2024938 %1022
1022
1022
SSO 2 (5)
OSO - S
>= 10000Nicht signifikant 
VENEZIA/TESSERA
IT 3
Mi 18.05. 16:50251141 %1022
1022
1022
S 2 (4)
SO - SSW
>= 10000Nicht signifikant 
VENEZIA/TESSERA
IT 3
Mi 18.05. 16:20241247 %1022
1022
1022
SSO 2 (5)
OSO - S
>= 10000Nicht signifikant 
VENEZIA/TESSERA
IT 3
Mi 18.05. 15:50241247 %1022
1022
1022
SSO 2 (5)
SO - SSW
>= 10000Nicht signifikant 
VENEZIA/TESSERA
IT 3
Mi 18.05. 15:20241350 %1023
1023
1023
SSO 2 (5)
OSO - S
>= 10000Nicht signifikant 
VENEZIA/TESSERA
IT 3
Mi 18.05. 14:50241144 %1022
1022
1022
SSO 2 (5)
OSO - S
>= 10000Nicht signifikant 

Altimeter: Einstellung am Altimeter (Höhenmesser), die Höhe 0 muss auf diesen Luftdruckwert zeigen, damit das Gerät die Stationshöhe richtig anzeigt.

NN: Luftdruck reduziert auf "Normal Null", auf Meereshöhe, dieser von der Temperatur abhängige Wert wird bisweilen unkorrekt einfach als "Luftdruck" bezeichnet. Eigentlich nur eine fiktive Größe, die es erlaubt, Stationen auf unterschiedlichen Höhen miteinander zu vergleichen.

Station: Realer Luftdruck an der Station.